sensor_id;sensor_type;location;lat;lon;timestamp;temperature;humidity
53695;DHT22;39588;51.124;7.190;2022-12-13T00:01:30;-2.80;98.10
53695;DHT22;39588;51.124;7.190;2022-12-13T00:03:58;-2.80;98.10
53695;DHT22;39588;51.124;7.190;2022-12-13T00:06:25;-2.80;98.10
53695;DHT22;39588;51.124;7.190;2022-12-13T00:08:51;-2.80;98.10
53695;DHT22;39588;51.124;7.190;2022-12-13T00:13:43;-2.80;98.20
53695;DHT22;39588;51.124;7.190;2022-12-13T00:16:14;-2.80;98.20
53695;DHT22;39588;51.124;7.190;2022-12-13T00:18:40;-2.80;98.20
53695;DHT22;39588;51.124;7.190;2022-12-13T00:21:07;-2.80;98.10
53695;DHT22;39588;51.124;7.190;2022-12-13T00:26:03;-2.80;98.20
53695;DHT22;39588;51.124;7.190;2022-12-13T00:28:29;-2.90;98.10
53695;DHT22;39588;51.124;7.190;2022-12-13T00:30:57;-2.90;98.10
53695;DHT22;39588;51.124;7.190;2022-12-13T00:33:23;-2.90;98.10
53695;DHT22;39588;51.124;7.190;2022-12-13T00:35:48;-2.90;98.10
53695;DHT22;39588;51.124;7.190;2022-12-13T00:38:14;-2.90;98.00
53695;DHT22;39588;51.124;7.190;2022-12-13T00:43:05;-2.90;98.00
53695;DHT22;39588;51.124;7.190;2022-12-13T00:45:32;-2.90;98.00
53695;DHT22;39588;51.124;7.190;2022-12-13T00:50:24;-2.90;98.00
53695;DHT22;39588;51.124;7.190;2022-12-13T00:55:16;-2.90;98.00
53695;DHT22;39588;51.124;7.190;2022-12-13T01:05:01;-3.00;97.90
53695;DHT22;39588;51.124;7.190;2022-12-13T01:13:14;-3.10;97.70
53695;DHT22;39588;51.124;7.190;2022-12-13T01:15:41;-3.10;97.70
53695;DHT22;39588;51.124;7.190;2022-12-13T01:18:07;-3.10;97.70
53695;DHT22;39588;51.124;7.190;2022-12-13T01:35:09;-3.20;97.70
53695;DHT22;39588;51.124;7.190;2022-12-13T01:40:04;-3.20;97.70
53695;DHT22;39588;51.124;7.190;2022-12-13T01:42:30;-3.30;97.70
53695;DHT22;39588;51.124;7.190;2022-12-13T01:45:03;-3.20;97.70
53695;DHT22;39588;51.124;7.190;2022-12-13T01:50:03;-3.30;97.60
53695;DHT22;39588;51.124;7.190;2022-12-13T01:52:31;-3.30;97.50
53695;DHT22;39588;51.124;7.190;2022-12-13T01:54:58;-3.30;97.50
53695;DHT22;39588;51.124;7.190;2022-12-13T01:57:25;-3.30;97.40
53695;DHT22;39588;51.124;7.190;2022-12-13T01:59:53;-3.30;97.40
53695;DHT22;39588;51.124;7.190;2022-12-13T02:02:20;-3.30;97.50
53695;DHT22;39588;51.124;7.190;2022-12-13T02:04:51;-3.30;97.50
53695;DHT22;39588;51.124;7.190;2022-12-13T02:07:21;-3.40;97.40
53695;DHT22;39588;51.124;7.190;2022-12-13T02:09:48;-3.40;97.40
53695;DHT22;39588;51.124;7.190;2022-12-13T02:17:34;-3.40;97.40
53695;DHT22;39588;51.124;7.190;2022-12-13T02:20:24;-3.40;97.30
53695;DHT22;39588;51.124;7.190;2022-12-13T02:31:49;-3.50;97.40
53695;DHT22;39588;51.124;7.190;2022-12-13T02:34:23;-3.50;97.50
53695;DHT22;39588;51.124;7.190;2022-12-13T02:37:23;-3.50;97.40
53695;DHT22;39588;51.124;7.190;2022-12-13T02:40:04;-3.50;97.50
53695;DHT22;39588;51.124;7.190;2022-12-13T02:42:39;-3.50;97.50
53695;DHT22;39588;51.124;7.190;2022-12-13T02:47:37;-3.50;97.30
53695;DHT22;39588;51.124;7.190;2022-12-13T02:50:05;-3.60;97.20
53695;DHT22;39588;51.124;7.190;2022-12-13T02:52:32;-3.60;97.30
53695;DHT22;39588;51.124;7.190;2022-12-13T02:54:58;-3.60;97.40
53695;DHT22;39588;51.124;7.190;2022-12-13T02:57:36;-3.60;97.30
53695;DHT22;39588;51.124;7.190;2022-12-13T03:00:11;-3.60;97.30
53695;DHT22;39588;51.124;7.190;2022-12-13T03:11:16;-3.60;97.10
53695;DHT22;39588;51.124;7.190;2022-12-13T03:16:31;-3.70;97.10
53695;DHT22;39588;51.124;7.190;2022-12-13T03:19:02;-3.70;97.10
53695;DHT22;39588;51.124;7.190;2022-12-13T03:21:28;-3.70;97.00
53695;DHT22;39588;51.124;7.190;2022-12-13T03:26:24;-3.70;97.00
53695;DHT22;39588;51.124;7.190;2022-12-13T03:28:50;-3.70;97.00
53695;DHT22;39588;51.124;7.190;2022-12-13T03:31:16;-3.70;97.00
53695;DHT22;39588;51.124;7.190;2022-12-13T03:33:42;-3.70;97.00
53695;DHT22;39588;51.124;7.190;2022-12-13T03:36:08;-3.70;97.00
53695;DHT22;39588;51.124;7.190;2022-12-13T03:38:35;-3.80;96.90
53695;DHT22;39588;51.124;7.190;2022-12-13T03:41:05;-3.80;96.90
53695;DHT22;39588;51.124;7.190;2022-12-13T03:45:58;-3.70;96.90
53695;DHT22;39588;51.124;7.190;2022-12-13T03:50:51;-3.80;96.90
53695;DHT22;39588;51.124;7.190;2022-12-13T03:53:17;-3.80;96.90
53695;DHT22;39588;51.124;7.190;2022-12-13T03:55:43;-3.80;97.00
53695;DHT22;39588;51.124;7.190;2022-12-13T03:58:08;-3.80;96.90
53695;DHT22;39588;51.124;7.190;2022-12-13T04:07:53;-3.90;96.90
53695;DHT22;39588;51.124;7.190;2022-12-13T04:10:18;-3.90;96.90
53695;DHT22;39588;51.124;7.190;2022-12-13T04:12:44;-3.90;96.80
53695;DHT22;39588;51.124;7.190;2022-12-13T04:15:28;-3.90;96.80
53695;DHT22;39588;51.124;7.190;2022-12-13T04:17:54;-3.90;96.80
53695;DHT22;39588;51.124;7.190;2022-12-13T04:20:19;-3.90;96.90
53695;DHT22;39588;51.124;7.190;2022-12-13T04:27:37;-3.90;96.70
53695;DHT22;39588;51.124;7.190;2022-12-13T04:30:06;-3.90;96.70
53695;DHT22;39588;51.124;7.190;2022-12-13T04:32:32;-4.00;96.70
53695;DHT22;39588;51.124;7.190;2022-12-13T04:34:58;-4.00;96.80
53695;DHT22;39588;51.124;7.190;2022-12-13T04:37:24;-4.00;96.70
53695;DHT22;39588;51.124;7.190;2022-12-13T04:42:15;-4.00;96.70
53695;DHT22;39588;51.124;7.190;2022-12-13T04:44:41;-4.00;96.70
53695;DHT22;39588;51.124;7.190;2022-12-13T04:47:07;-4.00;96.70
53695;DHT22;39588;51.124;7.190;2022-12-13T04:49:33;-4.10;96.60
53695;DHT22;39588;51.124;7.190;2022-12-13T04:51:59;-4.10;96.70
53695;DHT22;39588;51.124;7.190;2022-12-13T04:54:25;-4.10;96.70
53695;DHT22;39588;51.124;7.190;2022-12-13T05:06:34;-4.10;96.60
53695;DHT22;39588;51.124;7.190;2022-12-13T05:09:00;-4.10;96.60
53695;DHT22;39588;51.124;7.190;2022-12-13T05:11:26;-4.20;96.60
53695;DHT22;39588;51.124;7.190;2022-12-13T05:13:52;-4.20;96.60
53695;DHT22;39588;51.124;7.190;2022-12-13T05:16:17;-4.20;96.50
53695;DHT22;39588;51.124;7.190;2022-12-13T05:21:10;-4.20;96.60
53695;DHT22;39588;51.124;7.190;2022-12-13T05:23:37;-4.20;96.60
53695;DHT22;39588;51.124;7.190;2022-12-13T05:26:02;-4.20;96.60
53695;DHT22;39588;51.124;7.190;2022-12-13T05:28:28;-4.30;96.50
53695;DHT22;39588;51.124;7.190;2022-12-13T05:30:57;-4.30;96.50
53695;DHT22;39588;51.124;7.190;2022-12-13T05:33:23;-4.30;96.40
53695;DHT22;39588;51.124;7.190;2022-12-13T05:35:49;-4.30;96.50
53695;DHT22;39588;51.124;7.190;2022-12-13T05:38:14;-4.30;96.40
53695;DHT22;39588;51.124;7.190;2022-12-13T05:40:40;-4.40;96.40
53695;DHT22;39588;51.124;7.190;2022-12-13T05:45:32;-4.40;96.40
53695;DHT22;39588;51.124;7.190;2022-12-13T05:47:58;-4.40;96.50
53695;DHT22;39588;51.124;7.190;2022-12-13T05:50:24;-4.40;96.40
53695;DHT22;39588;51.124;7.190;2022-12-13T05:52:49;-4.40;96.50
53695;DHT22;39588;51.124;7.190;2022-12-13T05:55:15;-4.40;96.40
53695;DHT22;39588;51.124;7.190;2022-12-13T05:57:41;-4.40;96.50
53695;DHT22;39588;51.124;7.190;2022-12-13T06:00:08;-4.40;96.40
53695;DHT22;39588;51.124;7.190;2022-12-13T06:02:38;-4.40;96.40
53695;DHT22;39588;51.124;7.190;2022-12-13T06:05:04;-4.40;96.40
53695;DHT22;39588;51.124;7.190;2022-12-13T06:22:07;-4.60;96.40
53695;DHT22;39588;51.124;7.190;2022-12-13T06:26:58;-4.60;96.50
53695;DHT22;39588;51.124;7.190;2022-12-13T06:29:25;-4.70;96.50
53695;DHT22;39588;51.124;7.190;2022-12-13T06:31:58;-4.70;96.50
53695;DHT22;39588;51.124;7.190;2022-12-13T06:34:25;-4.70;96.50
53695;DHT22;39588;51.124;7.190;2022-12-13T06:36:50;-4.70;96.50
53695;DHT22;39588;51.124;7.190;2022-12-13T06:41:42;-4.80;96.50
53695;DHT22;39588;51.124;7.190;2022-12-13T06:56:18;-4.80;96.50
53695;DHT22;39588;51.124;7.190;2022-12-13T06:58:44;-4.80;96.50
53695;DHT22;39588;51.124;7.190;2022-12-13T07:01:15;-4.90;96.40
53695;DHT22;39588;51.124;7.190;2022-12-13T07:04:11;-5.00;96.50
53695;DHT22;39588;51.124;7.190;2022-12-13T07:06:37;-4.90;96.60
53695;DHT22;39588;51.124;7.190;2022-12-13T07:09:02;-4.90;96.50
53695;DHT22;39588;51.124;7.190;2022-12-13T07:11:30;-4.90;96.70
53695;DHT22;39588;51.124;7.190;2022-12-13T07:14:05;-5.00;96.50
53695;DHT22;39588;51.124;7.190;2022-12-13T07:16:32;-5.00;96.50
53695;DHT22;39588;51.124;7.190;2022-12-13T07:18:59;-5.00;96.40
53695;DHT22;39588;51.124;7.190;2022-12-13T07:21:25;-5.00;96.40
53695;DHT22;39588;51.124;7.190;2022-12-13T07:23:52;-5.10;96.50
53695;DHT22;39588;51.124;7.190;2022-12-13T07:26:18;-5.10;96.50
53695;DHT22;39588;51.124;7.190;2022-12-13T07:28:45;-5.10;96.50
53695;DHT22;39588;51.124;7.190;2022-12-13T07:31:11;-5.10;96.50
53695;DHT22;39588;51.124;7.190;2022-12-13T07:33:37;-5.10;96.50
53695;DHT22;39588;51.124;7.190;2022-12-13T07:36:17;-5.10;96.40
53695;DHT22;39588;51.124;7.190;2022-12-13T07:38:43;-5.10;96.40
53695;DHT22;39588;51.124;7.190;2022-12-13T07:41:09;-5.20;96.30
53695;DHT22;39588;51.124;7.190;2022-12-13T07:46:04;-5.20;96.30
53695;DHT22;39588;51.124;7.190;2022-12-13T07:48:32;-5.10;96.40
53695;DHT22;39588;51.124;7.190;2022-12-13T07:51:03;-5.20;96.30
53695;DHT22;39588;51.124;7.190;2022-12-13T07:53:30;-5.20;96.30
53695;DHT22;39588;51.124;7.190;2022-12-13T07:58:21;-5.20;96.30
53695;DHT22;39588;51.124;7.190;2022-12-13T08:03:14;-5.20;96.20
53695;DHT22;39588;51.124;7.190;2022-12-13T08:08:07;-5.20;96.20
53695;DHT22;39588;51.124;7.190;2022-12-13T08:10:34;-5.20;96.20
53695;DHT22;39588;51.124;7.190;2022-12-13T08:13:03;-5.20;96.20
53695;DHT22;39588;51.124;7.190;2022-12-13T08:15:30;-5.20;96.20
53695;DHT22;39588;51.124;7.190;2022-12-13T08:17:56;-5.20;96.20
53695;DHT22;39588;51.124;7.190;2022-12-13T08:22:58;-5.10;96.20
53695;DHT22;39588;51.124;7.190;2022-12-13T08:25:25;-5.10;96.20
53695;DHT22;39588;51.124;7.190;2022-12-13T08:27:51;-5.10;96.20
53695;DHT22;39588;51.124;7.190;2022-12-13T08:30:17;-5.00;96.20
53695;DHT22;39588;51.124;7.190;2022-12-13T08:42:28;-4.90;96.10
53695;DHT22;39588;51.124;7.190;2022-12-13T08:44:54;-4.80;96.10
53695;DHT22;39588;51.124;7.190;2022-12-13T08:47:22;-4.80;96.10
53695;DHT22;39588;51.124;7.190;2022-12-13T08:49:47;-4.70;96.10
53695;DHT22;39588;51.124;7.190;2022-12-13T08:52:13;-4.70;96.10
53695;DHT22;39588;51.124;7.190;2022-12-13T08:54:39;-4.60;96.10
53695;DHT22;39588;51.124;7.190;2022-12-13T08:57:04;-4.50;96.10
53695;DHT22;39588;51.124;7.190;2022-12-13T08:59:30;-4.50;96.00
53695;DHT22;39588;51.124;7.190;2022-12-13T09:01:56;-4.40;96.00
53695;DHT22;39588;51.124;7.190;2022-12-13T09:14:06;-4.10;96.00
53695;DHT22;39588;51.124;7.190;2022-12-13T09:19:01;-4.00;95.90
53695;DHT22;39588;51.124;7.190;2022-12-13T09:21:27;-4.00;95.90
53695;DHT22;39588;51.124;7.190;2022-12-13T09:23:53;-3.90;95.90
53695;DHT22;39588;51.124;7.190;2022-12-13T09:26:19;-3.80;95.90
53695;DHT22;39588;51.124;7.190;2022-12-13T09:28:45;-3.80;95.90
53695;DHT22;39588;51.124;7.190;2022-12-13T09:31:16;-3.80;95.80
53695;DHT22;39588;51.124;7.190;2022-12-13T09:33:42;-3.80;95.90
53695;DHT22;39588;51.124;7.190;2022-12-13T09:36:11;-3.80;95.90
53695;DHT22;39588;51.124;7.190;2022-12-13T09:38:37;-3.70;95.90
53695;DHT22;39588;51.124;7.190;2022-12-13T09:47:33;-3.50;96.00
53695;DHT22;39588;51.124;7.190;2022-12-13T09:50:04;-3.50;95.90
53695;DHT22;39588;51.124;7.190;2022-12-13T09:52:36;-3.50;96.00
53695;DHT22;39588;51.124;7.190;2022-12-13T09:55:15;-3.50;96.00
53695;DHT22;39588;51.124;7.190;2022-12-13T09:57:43;-3.40;96.10
53695;DHT22;39588;51.124;7.190;2022-12-13T10:00:13;-3.40;96.00
53695;DHT22;39588;51.124;7.190;2022-12-13T10:02:45;-3.40;95.90
53695;DHT22;39588;51.124;7.190;2022-12-13T10:07:40;-3.40;95.90
53695;DHT22;39588;51.124;7.190;2022-12-13T10:10:09;-3.40;96.00
53695;DHT22;39588;51.124;7.190;2022-12-13T10:12:36;-3.30;96.00
53695;DHT22;39588;51.124;7.190;2022-12-13T10:15:03;-3.30;96.00
53695;DHT22;39588;51.124;7.190;2022-12-13T10:17:36;-3.30;96.00
53695;DHT22;39588;51.124;7.190;2022-12-13T10:20:03;-3.20;95.90
53695;DHT22;39588;51.124;7.190;2022-12-13T10:25:01;-3.00;96.00
53695;DHT22;39588;51.124;7.190;2022-12-13T10:27:44;-2.90;95.90
53695;DHT22;39588;51.124;7.190;2022-12-13T10:30:18;-2.80;95.80
53695;DHT22;39588;51.124;7.190;2022-12-13T10:37:47;-2.60;95.70
53695;DHT22;39588;51.124;7.190;2022-12-13T10:43:14;-2.30;95.80
53695;DHT22;39588;51.124;7.190;2022-12-13T10:45:43;-2.20;95.80
53695;DHT22;39588;51.124;7.190;2022-12-13T10:48:27;-2.00;95.60
53695;DHT22;39588;51.124;7.190;2022-12-13T10:50:58;-1.90;95.60
53695;DHT22;39588;51.124;7.190;2022-12-13T10:53:32;-1.80;95.50
53695;DHT22;39588;51.124;7.190;2022-12-13T10:55:58;-1.70;95.60
53695;DHT22;39588;51.124;7.190;2022-12-13T10:58:40;-1.60;95.30
53695;DHT22;39588;51.124;7.190;2022-12-13T11:03:34;-1.70;95.00
53695;DHT22;39588;51.124;7.190;2022-12-13T11:06:12;-1.70;95.30
53695;DHT22;39588;51.124;7.190;2022-12-13T11:08:38;-1.70;95.30
53695;DHT22;39588;51.124;7.190;2022-12-13T11:11:06;-1.60;95.20
53695;DHT22;39588;51.124;7.190;2022-12-13T11:13:37;-1.50;95.30
53695;DHT22;39588;51.124;7.190;2022-12-13T11:18:56;-1.30;95.20
53695;DHT22;39588;51.124;7.190;2022-12-13T11:21:26;-1.10;95.20
53695;DHT22;39588;51.124;7.190;2022-12-13T11:23:56;-1.10;94.80
53695;DHT22;39588;51.124;7.190;2022-12-13T11:26:24;-1.10;94.90
53695;DHT22;39588;51.124;7.190;2022-12-13T11:37:32;-1.00;94.90
53695;DHT22;39588;51.124;7.190;2022-12-13T11:40:14;-0.90;94.90
53695;DHT22;39588;51.124;7.190;2022-12-13T11:42:49;-0.80;94.80
53695;DHT22;39588;51.124;7.190;2022-12-13T11:45:33;-0.70;94.70
53695;DHT22;39588;51.124;7.190;2022-12-13T11:48:11;-0.60;94.50
53695;DHT22;39588;51.124;7.190;2022-12-13T11:50:40;-0.50;94.60
53695;DHT22;39588;51.124;7.190;2022-12-13T11:56:24;-0.40;94.90
53695;DHT22;39588;51.124;7.190;2022-12-13T12:04:43;-0.40;94.80
53695;DHT22;39588;51.124;7.190;2022-12-13T12:07:15;-0.40;94.50
53695;DHT22;39588;51.124;7.190;2022-12-13T12:09:49;-0.40;94.30
53695;DHT22;39588;51.124;7.190;2022-12-13T12:12:21;-0.30;94.20
53695;DHT22;39588;51.124;7.190;2022-12-13T12:17:25;-0.20;94.00
53695;DHT22;39588;51.124;7.190;2022-12-13T12:19:56;-0.20;94.00
53695;DHT22;39588;51.124;7.190;2022-12-13T12:31:17;-0.20;94.10
53695;DHT22;39588;51.124;7.190;2022-12-13T12:50:52;0.30;93.30
53695;DHT22;39588;51.124;7.190;2022-12-13T12:53:28;0.40;93.70
53695;DHT22;39588;51.124;7.190;2022-12-13T12:56:09;0.40;93.40
53695;DHT22;39588;51.124;7.190;2022-12-13T13:04:07;0.40;93.40
53695;DHT22;39588;51.124;7.190;2022-12-13T13:06:40;0.40;93.40
53695;DHT22;39588;51.124;7.190;2022-12-13T13:09:10;0.40;93.30
53695;DHT22;39588;51.124;7.190;2022-12-13T13:11:39;0.40;93.20
53695;DHT22;39588;51.124;7.190;2022-12-13T13:14:26;0.30;93.40
53695;DHT22;39588;51.124;7.190;2022-12-13T13:16:52;0.30;93.40
53695;DHT22;39588;51.124;7.190;2022-12-13T13:21:56;0.20;93.60
53695;DHT22;39588;51.124;7.190;2022-12-13T13:31:13;0.10;93.60
53695;DHT22;39588;51.124;7.190;2022-12-13T13:33:49;0.00;93.70
53695;DHT22;39588;51.124;7.190;2022-12-13T13:36:44;0.00;93.70
53695;DHT22;39588;51.124;7.190;2022-12-13T13:39:54;0.00;93.80
53695;DHT22;39588;51.124;7.190;2022-12-13T14:16:49;-0.20;93.80
53695;DHT22;39588;51.124;7.190;2022-12-13T14:30:15;-0.30;94.10
53695;DHT22;39588;51.124;7.190;2022-12-13T14:32:46;-0.30;94.20
53695;DHT22;39588;51.124;7.190;2022-12-13T14:38:04;-0.30;94.20
53695;DHT22;39588;51.124;7.190;2022-12-13T14:40:46;-0.30;94.30
53695;DHT22;39588;51.124;7.190;2022-12-13T14:46:13;-0.40;94.10
53695;DHT22;39588;51.124;7.190;2022-12-13T14:48:48;-0.40;94.30
53695;DHT22;39588;51.124;7.190;2022-12-13T14:53:54;-0.50;94.20
53695;DHT22;39588;51.124;7.190;2022-12-13T14:56:20;-0.50;94.10
53695;DHT22;39588;51.124;7.190;2022-12-13T14:58:57;-0.60;94.10
53695;DHT22;39588;51.124;7.190;2022-12-13T15:01:30;-0.60;94.10
53695;DHT22;39588;51.124;7.190;2022-12-13T15:04:28;-0.60;94.20
53695;DHT22;39588;51.124;7.190;2022-12-13T15:11:52;-0.70;94.00
53695;DHT22;39588;51.124;7.190;2022-12-13T15:14:20;-0.80;93.90
53695;DHT22;39588;51.124;7.190;2022-12-13T15:16:54;-0.80;93.90
53695;DHT22;39588;51.124;7.190;2022-12-13T15:19:23;-0.80;94.00
53695;DHT22;39588;51.124;7.190;2022-12-13T15:21:54;-0.80;94.00
53695;DHT22;39588;51.124;7.190;2022-12-13T15:24:38;-0.90;93.90
53695;DHT22;39588;51.124;7.190;2022-12-13T15:27:12;-0.90;93.90
53695;DHT22;39588;51.124;7.190;2022-12-13T15:29:39;-0.90;94.10
53695;DHT22;39588;51.124;7.190;2022-12-13T15:32:11;-1.00;94.00
53695;DHT22;39588;51.124;7.190;2022-12-13T15:37:15;-1.00;93.90
53695;DHT22;39588;51.124;7.190;2022-12-13T15:39:44;-1.10;93.80
53695;DHT22;39588;51.124;7.190;2022-12-13T15:42:28;-1.00;93.90
53695;DHT22;39588;51.124;7.190;2022-12-13T15:45:05;-1.00;94.00
53695;DHT22;39588;51.124;7.190;2022-12-13T15:47:46;-1.00;94.00
53695;DHT22;39588;51.124;7.190;2022-12-13T15:50:47;-1.10;93.90
53695;DHT22;39588;51.124;7.190;2022-12-13T15:53:27;-1.00;94.10
53695;DHT22;39588;51.124;7.190;2022-12-13T15:55:52;-1.10;93.80
53695;DHT22;39588;51.124;7.190;2022-12-13T16:00:52;-1.10;93.80
53695;DHT22;39588;51.124;7.190;2022-12-13T16:03:21;-1.10;93.90
53695;DHT22;39588;51.124;7.190;2022-12-13T16:05:53;-1.10;93.80
53695;DHT22;39588;51.124;7.190;2022-12-13T16:08:32;-1.10;93.70
53695;DHT22;39588;51.124;7.190;2022-12-13T16:11:03;-1.10;93.70
53695;DHT22;39588;51.124;7.190;2022-12-13T16:13:35;-1.20;93.60
53695;DHT22;39588;51.124;7.190;2022-12-13T16:18:53;-1.20;93.80
53695;DHT22;39588;51.124;7.190;2022-12-13T16:21:19;-1.30;93.50
53695;DHT22;39588;51.124;7.190;2022-12-13T16:23:45;-1.30;93.60
53695;DHT22;39588;51.124;7.190;2022-12-13T16:26:12;-1.30;93.50
53695;DHT22;39588;51.124;7.190;2022-12-13T16:28:39;-1.30;93.40
53695;DHT22;39588;51.124;7.190;2022-12-13T16:31:25;-1.30;93.30
53695;DHT22;39588;51.124;7.190;2022-12-13T16:43:39;-1.30;93.30
53695;DHT22;39588;51.124;7.190;2022-12-13T16:46:11;-1.30;93.40
53695;DHT22;39588;51.124;7.190;2022-12-13T16:51:03;-1.30;93.30
53695;DHT22;39588;51.124;7.190;2022-12-13T16:53:30;-1.30;93.30
53695;DHT22;39588;51.124;7.190;2022-12-13T17:00:50;-1.30;93.30
53695;DHT22;39588;51.124;7.190;2022-12-13T17:03:16;-1.30;93.30
53695;DHT22;39588;51.124;7.190;2022-12-13T17:05:43;-1.30;93.10
53695;DHT22;39588;51.124;7.190;2022-12-13T17:08:13;-1.30;93.20
53695;DHT22;39588;51.124;7.190;2022-12-13T17:10:40;-1.30;93.20
53695;DHT22;39588;51.124;7.190;2022-12-13T17:13:06;-1.30;93.20
53695;DHT22;39588;51.124;7.190;2022-12-13T17:15:32;-1.30;93.30
53695;DHT22;39588;51.124;7.190;2022-12-13T17:20:23;-1.30;93.30
53695;DHT22;39588;51.124;7.190;2022-12-13T17:27:42;-1.40;93.10
53695;DHT22;39588;51.124;7.190;2022-12-13T17:30:13;-1.40;93.20
53695;DHT22;39588;51.124;7.190;2022-12-13T17:32:39;-1.40;93.20
53695;DHT22;39588;51.124;7.190;2022-12-13T17:35:05;-1.40;93.20
53695;DHT22;39588;51.124;7.190;2022-12-13T17:37:31;-1.40;93.00
53695;DHT22;39588;51.124;7.190;2022-12-13T17:39:56;-1.40;93.00
53695;DHT22;39588;51.124;7.190;2022-12-13T17:42:22;-1.40;93.00
53695;DHT22;39588;51.124;7.190;2022-12-13T17:49:40;-1.50;92.70
53695;DHT22;39588;51.124;7.190;2022-12-13T17:52:05;-1.50;92.80
53695;DHT22;39588;51.124;7.190;2022-12-13T17:54:32;-1.50;92.80
53695;DHT22;39588;51.124;7.190;2022-12-13T17:56:57;-1.50;92.80
53695;DHT22;39588;51.124;7.190;2022-12-13T17:59:23;-1.60;92.80
53695;DHT22;39588;51.124;7.190;2022-12-13T18:01:49;-1.60;92.70
53695;DHT22;39588;51.124;7.190;2022-12-13T18:04:16;-1.60;92.70
53695;DHT22;39588;51.124;7.190;2022-12-13T18:06:41;-1.60;92.70
53695;DHT22;39588;51.124;7.190;2022-12-13T18:09:07;-1.60;92.70
53695;DHT22;39588;51.124;7.190;2022-12-13T18:11:35;-1.60;92.60
53695;DHT22;39588;51.124;7.190;2022-12-13T18:14:02;-1.60;92.60
53695;DHT22;39588;51.124;7.190;2022-12-13T18:16:28;-1.60;92.70
53695;DHT22;39588;51.124;7.190;2022-12-13T18:18:54;-1.60;92.80
53695;DHT22;39588;51.124;7.190;2022-12-13T18:21:20;-1.70;92.80
53695;DHT22;39588;51.124;7.190;2022-12-13T18:26:22;-1.70;92.70
53695;DHT22;39588;51.124;7.190;2022-12-13T18:28:48;-1.60;92.70
53695;DHT22;39588;51.124;7.190;2022-12-13T18:31:16;-1.70;92.70
53695;DHT22;39588;51.124;7.190;2022-12-13T18:33:47;-1.70;92.70
53695;DHT22;39588;51.124;7.190;2022-12-13T18:36:13;-1.70;92.80
53695;DHT22;39588;51.124;7.190;2022-12-13T18:38:39;-1.70;92.80
53695;DHT22;39588;51.124;7.190;2022-12-13T18:41:12;-1.70;92.70
53695;DHT22;39588;51.124;7.190;2022-12-13T18:43:42;-1.70;92.60
53695;DHT22;39588;51.124;7.190;2022-12-13T18:46:18;-1.70;92.60
53695;DHT22;39588;51.124;7.190;2022-12-13T18:48:44;-1.70;92.70
53695;DHT22;39588;51.124;7.190;2022-12-13T18:51:10;-1.70;92.70
53695;DHT22;39588;51.124;7.190;2022-12-13T18:53:37;-1.70;92.80
53695;DHT22;39588;51.124;7.190;2022-12-13T18:56:08;-1.70;92.70
53695;DHT22;39588;51.124;7.190;2022-12-13T18:58:35;-1.70;92.70
53695;DHT22;39588;51.124;7.190;2022-12-13T19:01:02;-1.70;92.70
53695;DHT22;39588;51.124;7.190;2022-12-13T19:03:29;-1.70;92.70
53695;DHT22;39588;51.124;7.190;2022-12-13T19:05:56;-1.70;92.70
53695;DHT22;39588;51.124;7.190;2022-12-13T19:08:22;-1.70;92.80
53695;DHT22;39588;51.124;7.190;2022-12-13T19:10:59;-1.70;92.60
53695;DHT22;39588;51.124;7.190;2022-12-13T19:13:27;-1.70;92.60
53695;DHT22;39588;51.124;7.190;2022-12-13T19:15:54;-1.70;92.60
53695;DHT22;39588;51.124;7.190;2022-12-13T19:18:20;-1.70;92.50
53695;DHT22;39588;51.124;7.190;2022-12-13T19:20:51;-1.70;92.60
53695;DHT22;39588;51.124;7.190;2022-12-13T19:23:18;-1.70;92.60
53695;DHT22;39588;51.124;7.190;2022-12-13T19:25:45;-1.80;92.50
53695;DHT22;39588;51.124;7.190;2022-12-13T19:28:12;-1.80;92.50
53695;DHT22;39588;51.124;7.190;2022-12-13T19:30:38;-1.80;92.30
53695;DHT22;39588;51.124;7.190;2022-12-13T19:33:05;-1.80;92.40
53695;DHT22;39588;51.124;7.190;2022-12-13T19:35:33;-1.80;92.40
53695;DHT22;39588;51.124;7.190;2022-12-13T19:38:00;-1.80;92.50
53695;DHT22;39588;51.124;7.190;2022-12-13T19:42:52;-1.80;92.50
53695;DHT22;39588;51.124;7.190;2022-12-13T19:45:24;-1.80;92.50
53695;DHT22;39588;51.124;7.190;2022-12-13T19:47:49;-1.90;92.40
53695;DHT22;39588;51.124;7.190;2022-12-13T19:50:15;-1.80;92.40
53695;DHT22;39588;51.124;7.190;2022-12-13T19:52:41;-1.90;92.40
53695;DHT22;39588;51.124;7.190;2022-12-13T20:02:25;-1.80;92.20
53695;DHT22;39588;51.124;7.190;2022-12-13T20:26:46;-1.90;91.90
53695;DHT22;39588;51.124;7.190;2022-12-13T20:31:38;-1.90;92.00
53695;DHT22;39588;51.124;7.190;2022-12-13T20:34:05;-1.90;91.80
53695;DHT22;39588;51.124;7.190;2022-12-13T20:39:02;-1.90;91.90
53695;DHT22;39588;51.124;7.190;2022-12-13T20:41:30;-1.90;91.80
53695;DHT22;39588;51.124;7.190;2022-12-13T20:43:59;-1.90;91.70
53695;DHT22;39588;51.124;7.190;2022-12-13T20:46:27;-1.90;91.60
53695;DHT22;39588;51.124;7.190;2022-12-13T20:48:54;-1.90;91.30
53695;DHT22;39588;51.124;7.190;2022-12-13T20:51:22;-1.90;91.40
53695;DHT22;39588;51.124;7.190;2022-12-13T20:53:49;-1.90;91.50
53695;DHT22;39588;51.124;7.190;2022-12-13T20:56:26;-1.90;91.20
53695;DHT22;39588;51.124;7.190;2022-12-13T20:58:52;-1.90;91.10
53695;DHT22;39588;51.124;7.190;2022-12-13T21:01:23;-1.80;91.40
53695;DHT22;39588;51.124;7.190;2022-12-13T21:03:52;-1.80;91.00
53695;DHT22;39588;51.124;7.190;2022-12-13T21:06:18;-1.80;90.90
53695;DHT22;39588;51.124;7.190;2022-12-13T21:08:44;-1.80;90.60
53695;DHT22;39588;51.124;7.190;2022-12-13T21:11:26;-1.80;90.90
53695;DHT22;39588;51.124;7.190;2022-12-13T21:14:01;-1.80;90.50
53695;DHT22;39588;51.124;7.190;2022-12-13T21:16:30;-1.80;90.90
53695;DHT22;39588;51.124;7.190;2022-12-13T21:18:57;-1.80;90.60
53695;DHT22;39588;51.124;7.190;2022-12-13T21:21:24;-1.90;90.60
53695;DHT22;39588;51.124;7.190;2022-12-13T21:26:17;-1.90;90.50
53695;DHT22;39588;51.124;7.190;2022-12-13T21:28:42;-1.90;90.50
53695;DHT22;39588;51.124;7.190;2022-12-13T21:31:10;-2.00;90.70
53695;DHT22;39588;51.124;7.190;2022-12-13T21:33:37;-2.00;90.80
53695;DHT22;39588;51.124;7.190;2022-12-13T21:36:14;-2.10;90.60
53695;DHT22;39588;51.124;7.190;2022-12-13T21:38:41;-2.00;90.40
53695;DHT22;39588;51.124;7.190;2022-12-13T21:41:08;-2.00;90.50
53695;DHT22;39588;51.124;7.190;2022-12-13T21:43:34;-2.10;90.40
53695;DHT22;39588;51.124;7.190;2022-12-13T21:46:14;-2.10;89.90
53695;DHT22;39588;51.124;7.190;2022-12-13T21:48:42;-2.10;90.00
53695;DHT22;39588;51.124;7.190;2022-12-13T21:51:11;-2.10;90.00
53695;DHT22;39588;51.124;7.190;2022-12-13T21:53:37;-2.10;90.00
53695;DHT22;39588;51.124;7.190;2022-12-13T21:56:07;-2.10;89.70
53695;DHT22;39588;51.124;7.190;2022-12-13T21:58:52;-2.10;90.20
53695;DHT22;39588;51.124;7.190;2022-12-13T22:01:52;-2.10;89.70
53695;DHT22;39588;51.124;7.190;2022-12-13T22:04:56;-2.10;89.30
53695;DHT22;39588;51.124;7.190;2022-12-13T22:07:23;-2.10;89.70
53695;DHT22;39588;51.124;7.190;2022-12-13T22:09:50;-2.10;89.10
53695;DHT22;39588;51.124;7.190;2022-12-13T22:14:44;-2.10;88.60
53695;DHT22;39588;51.124;7.190;2022-12-13T22:17:10;-2.10;89.00
53695;DHT22;39588;51.124;7.190;2022-12-13T22:19:36;-2.10;88.40
53695;DHT22;39588;51.124;7.190;2022-12-13T22:24:27;-2.10;88.10
53695;DHT22;39588;51.124;7.190;2022-12-13T22:26:53;-2.10;88.80
53695;DHT22;39588;51.124;7.190;2022-12-13T22:29:18;-2.10;88.80